Terminal Aerodrome Forecast
Issued by NWS

Home | Current Version | Previous Version | Text Only | Print | Product List | Glossary On
Versions: 1 2 3 4 5 6 7 8 9 10 11 12 13 14
000
FTUS45 KFGZ 211100
TAFSEZ
TAF
KSEZ 211128Z 2112/2212 05012KT P6SM SKC
     FM211500 VRB05KT P6SM FEW110
     FM212000 21008G16KT P6SM SCT110
     FM220400 05008KT P6SM FEW250=

USA.gov is the U.S. government's official web portal to all federal, state and local government web resources and services.